Time;durP1;ratioP1;P1;durP2;ratioP2;P2;SDS_P1;SDS_P2;PMS_P1;PMS_P2;Temp;Humidity;BMP_temperature;BMP_pressure;BME280_temperature;BME280_humidity;BME280_pressure;Samples;Min_cycle;Max_cycle;Signal;HPM_P1;HPM_P2
2021/09/22 00:01:09;;;;;;;23.70;13.68;;;8.80;99.90;;;;;;5055981;28;20021;-68
2021/09/22 00:03:34;;;;;;;19.10;13.13;;;8.80;99.90;;;;;;5054491;28;20075;-68
2021/09/22 00:06:00;;;;;;;22.25;14.20;;;8.80;99.90;;;;;;5056227;28;20052;-68
2021/09/22 00:08:26;;;;;;;22.83;14.77;;;8.80;99.90;;;;;;5054733;28;20016;-68
2021/09/22 00:10:51;;;;;;;23.45;14.02;;;8.70;99.90;;;;;;5054997;28;20033;-68
2021/09/22 00:13:17;;;;;;;19.30;13.45;;;8.70;99.90;;;;;;5055812;28;20034;-68
2021/09/22 00:15:42;;;;;;;19.60;13.30;;;8.70;99.90;;;;;;5056028;28;20099;-68
2021/09/22 00:18:08;;;;;;;24.50;16.20;;;8.70;99.90;;;;;;5055598;28;20113;-68
2021/09/22 00:20:33;;;;;;;24.48;15.55;;;8.70;99.90;;;;;;5055278;28;20056;-68
2021/09/22 00:22:59;;;;;;;26.55;15.50;;;8.70;99.90;;;;;;5055621;28;20522;-68
2021/09/22 00:25:25;;;;;;;19.02;13.43;;;8.70;99.90;;;;;;5055582;28;20466;-68
2021/09/22 00:27:51;;;;;;;19.90;13.35;;;8.60;99.90;;;;;;5054399;28;20134;-68
2021/09/22 00:30:17;;;;;;;23.05;13.93;;;8.60;99.90;;;;;;5054284;28;20025;-68
2021/09/22 00:32:47;;;;;;;22.83;13.40;;;8.60;99.90;;;;;;5055434;28;20025;-68
2021/09/22 00:35:14;;;;;;;23.25;13.82;;;8.60;99.90;;;;;;5055405;28;20029;-68
2021/09/22 00:37:40;;;;;;;19.83;13.48;;;8.50;99.90;;;;;;5053791;28;20111;-68
2021/09/22 00:40:07;;;;;;;19.73;12.65;;;8.50;99.90;;;;;;5055473;28;20028;-68
2021/09/22 00:42:33;;;;;;;19.98;12.75;;;8.50;99.90;;;;;;5055010;28;20023;-68
2021/09/22 00:45:06;;;;;;;20.95;13.70;;;8.50;99.90;;;;;;5055214;28;20017;-67
2021/09/22 00:47:31;;;;;;;25.67;15.03;;;8.50;99.90;;;;;;5055461;28;20465;-68
2021/09/22 00:49:57;;;;;;;30.00;15.50;;;8.60;99.90;;;;;;5054802;28;20025;-68
2021/09/22 00:52:24;;;;;;;26.75;15.55;;;8.80;99.90;;;;;;5053486;28;20029;-68
2021/09/22 00:54:50;;;;;;;25.90;14.88;;;8.80;99.90;;;;;;5053857;28;20039;-68
2021/09/22 00:57:17;;;;;;;23.33;15.52;;;8.80;99.90;;;;;;5055268;28;20429;-68
2021/09/22 00:59:43;;;;;;;28.55;15.80;;;8.80;99.90;;;;;;5053902;28;20025;-68
2021/09/22 01:02:09;;;;;;;25.67;15.00;;;8.80;99.90;;;;;;5055139;28;20055;-68
2021/09/22 01:04:36;;;;;;;24.75;15.68;;;8.80;99.90;;;;;;5054817;28;20025;-68
2021/09/22 01:07:04;;;;;;;31.70;16.05;;;8.80;99.90;;;;;;5055067;28;20486;-67
2021/09/22 01:09:30;;;;;;;25.48;15.55;;;8.80;99.90;;;;;;5053217;28;20021;-68
2021/09/22 01:11:55;;;;;;;26.83;15.35;;;8.80;99.90;;;;;;5054644;28;20390;-68
2021/09/22 01:14:23;;;;;;;24.92;14.95;;;8.70;99.90;;;;;;5054358;28;20021;-68
2021/09/22 01:16:50;;;;;;;24.33;15.25;;;8.70;99.90;;;;;;5054858;28;20025;-68
2021/09/22 01:19:16;;;;;;;24.27;14.80;;;8.70;99.90;;;;;;5054538;28;20028;-68
2021/09/22 01:21:45;;;;;;;22.50;14.70;;;8.70;99.90;;;;;;5054041;28;20092;-68
2021/09/22 01:24:10;;;;;;;24.08;14.75;;;8.70;99.90;;;;;;5054751;28;20035;-68
2021/09/22 01:26:37;;;;;;;22.77;15.13;;;8.60;99.90;;;;;;5054402;28;20501;-68
2021/09/22 01:29:02;;;;;;;19.80;13.40;;;8.60;99.90;;;;;;5054450;28;20025;-68
2021/09/22 01:31:28;;;;;;;27.02;14.43;;;8.60;99.90;;;;;;5052852;28;20390;-68
2021/09/22 01:33:54;;;;;;;22.67;15.00;;;8.50;99.90;;;;;;5054574;28;20037;-68
2021/09/22 01:36:19;;;;;;;27.45;16.02;;;8.50;99.90;;;;;;5036193;28;20466;-68
2021/09/22 01:38:45;;;;;;;28.70;16.40;;;8.50;99.90;;;;;;5054185;28;20036;-68
2021/09/22 01:41:13;;;;;;;26.88;15.85;;;8.50;99.90;;;;;;5054085;28;20029;-68
2021/09/22 01:43:39;;;;;;;25.40;15.75;;;8.50;99.90;;;;;;5053799;28;20025;-68
2021/09/22 01:46:07;;;;;;;23.02;15.10;;;8.50;99.90;;;;;;5054361;28;20017;-68
2021/09/22 01:48:34;;;;;;;26.60;14.15;;;8.50;99.90;;;;;;5052481;28;20021;-68
2021/09/22 01:51:01;;;;;;;20.10;13.73;;;8.50;99.90;;;;;;5054268;28;20021;-68
2021/09/22 01:53:28;;;;;;;22.48;14.35;;;8.40;99.90;;;;;;5053958;28;20022;-68
2021/09/22 01:55:56;;;;;;;19.73;12.65;;;8.30;99.90;;;;;;5054488;28;20025;-68
2021/09/22 01:58:22;;;;;;;19.42;12.65;;;8.30;99.90;;;;;;5053916;28;20021;-68
2021/09/22 02:00:49;;;;;;;24.92;15.07;;;8.30;99.90;;;;;;5054062;28;20025;-68
2021/09/22 02:03:16;;;;;;;25.08;15.32;;;8.30;99.90;;;;;;5036021;28;20032;-68
2021/09/22 02:05:42;;;;;;;23.73;15.50;;;8.30;99.90;;;;;;5054094;28;20017;-68
2021/09/22 02:08:08;;;;;;;33.90;20.33;;;8.30;99.90;;;;;;5054011;28;20020;-68
2021/09/22 02:10:34;;;;;;;29.75;18.65;;;8.40;99.90;;;;;;5053990;28;20039;-68
2021/09/22 02:12:59;;;;;;;33.67;20.05;;;8.50;99.90;;;;;;5053681;28;20033;-68
2021/09/22 02:15:26;;;;;;;30.67;19.15;;;8.50;99.90;;;;;;5053408;28;20055;-68
2021/09/22 02:17:51;;;;;;;32.35;18.27;;;8.40;99.90;;;;;;5052821;28;20055;-68
2021/09/22 02:20:17;;;;;;;25.20;16.75;;;8.40;99.90;;;;;;5053486;28;20049;-68
2021/09/22 02:22:42;;;;;;;26.75;16.15;;;8.30;99.90;;;;;;5053913;28;20021;-68
2021/09/22 02:25:10;;;;;;;26.58;16.83;;;8.30;99.90;;;;;;5053858;28;20025;-68
2021/09/22 02:27:36;;;;;;;23.15;15.43;;;8.20;99.90;;;;;;5052407;28;20174;-68
2021/09/22 02:30:04;;;;;;;25.67;14.77;;;8.20;99.90;;;;;;5053553;28;20036;-68
2021/09/22 02:32:30;;;;;;;26.70;15.98;;;8.10;99.90;;;;;;5053801;28;20483;-68
2021/09/22 02:34:55;;;;;;;21.52;14.68;;;8.10;99.90;;;;;;5053510;28;20033;-68
2021/09/22 02:37:21;;;;;;;24.77;15.38;;;8.00;99.90;;;;;;5053496;28;20473;-68
2021/09/22 02:39:47;;;;;;;27.40;16.73;;;8.00;99.90;;;;;;5053075;28;20028;-68
2021/09/22 02:42:12;;;;;;;27.15;17.42;;;8.00;99.90;;;;;;5055178;28;20409;-68
2021/09/22 02:44:38;;;;;;;28.75;16.60;;;8.00;99.90;;;;;;5057172;28;20052;-68
2021/09/22 02:47:03;;;;;;;31.02;17.02;;;8.00;99.90;;;;;;5057967;28;20025;-68
2021/09/22 02:49:29;;;;;;;27.27;15.70;;;8.00;99.90;;;;;;5057698;28;20366;-68
2021/09/22 02:51:54;;;;;;;23.92;16.80;;;7.90;99.90;;;;;;5056394;28;20083;-68
2021/09/22 02:54:20;;;;;;;30.90;18.63;;;7.90;99.90;;;;;;5057326;28;20078;-68
2021/09/22 02:56:46;;;;;;;29.98;16.85;;;7.90;99.90;;;;;;5057541;28;20032;-68
2021/09/22 02:59:12;;;;;;;25.95;17.17;;;7.90;99.90;;;;;;5057524;28;20370;-68
2021/09/22 03:01:37;;;;;;;23.73;16.27;;;7.90;99.90;;;;;;5057386;28;20032;-68
2021/09/22 03:04:03;;;;;;;24.50;15.57;;;7.80;99.90;;;;;;5057136;28;20024;-68
2021/09/22 03:06:29;;;;;;;22.77;14.77;;;7.80;99.90;;;;;;5057057;28;20374;-68
2021/09/22 03:08:55;;;;;;;25.52;16.50;;;7.80;99.90;;;;;;5057074;28;20013;-68
2021/09/22 03:11:20;;;;;;;26.38;16.10;;;7.80;99.90;;;;;;5057515;28;20029;-68
2021/09/22 03:13:46;;;;;;;26.52;15.10;;;7.70;99.90;;;;;;5057223;28;20099;-67
2021/09/22 03:16:12;;;;;;;22.30;15.27;;;7.70;99.90;;;;;;5057198;28;20415;-68
2021/09/22 03:18:38;;;;;;;23.65;15.30;;;7.70;99.90;;;;;;5057092;28;20360;-68
2021/09/22 03:21:04;;;;;;;24.88;14.85;;;7.70;99.90;;;;;;5056519;28;20037;-68
2021/09/22 03:23:29;;;;;;;24.65;14.45;;;7.70;99.90;;;;;;5056771;28;20028;-68
2021/09/22 03:25:55;;;;;;;21.65;14.57;;;7.70;99.90;;;;;;5057254;28;20021;-68
2021/09/22 03:28:22;;;;;;;34.22;19.00;;;7.60;99.90;;;;;;5038824;28;20021;-68
2021/09/22 03:30:47;;;;;;;29.50;17.98;;;7.60;99.90;;;;;;5056583;28;20021;-68
2021/09/22 03:33:13;;;;;;;33.17;19.90;;;7.70;99.90;;;;;;5056274;28;20056;-68
2021/09/22 03:35:38;;;;;;;29.70;19.45;;;7.60;99.90;;;;;;5056519;28;20351;-68
2021/09/22 03:38:05;;;;;;;31.67;17.80;;;7.60;99.90;;;;;;5056749;28;20033;-68
2021/09/22 03:40:31;;;;;;;32.33;19.23;;;7.60;99.90;;;;;;5056633;28;20040;-68
2021/09/22 03:42:57;;;;;;;29.90;17.83;;;7.60;99.90;;;;;;5056358;28;20025;-68
2021/09/22 03:45:23;;;;;;;27.30;16.55;;;7.60;99.90;;;;;;5056605;28;20017;-68
2021/09/22 03:47:49;;;;;;;35.15;19.13;;;7.60;99.90;;;;;;5056539;28;20017;-68
2021/09/22 03:50:15;;;;;;;31.73;18.75;;;7.60;99.90;;;;;;5055061;28;20033;-68
2021/09/22 03:52:41;;;;;;;32.45;18.70;;;7.60;99.90;;;;;;5056006;28;20057;-68
2021/09/22 03:55:07;;;;;;;29.50;18.67;;;7.50;99.90;;;;;;5056194;28;20107;-68
2021/09/22 03:57:33;;;;;;;29.02;18.33;;;7.50;99.90;;;;;;5056389;28;20029;-68
2021/09/22 03:59:58;;;;;;;24.23;16.00;;;7.50;99.90;;;;;;5054602;28;20051;-68
2021/09/22 04:02:24;;;;;;;26.67;17.77;;;7.50;99.90;;;;;;5056288;28;20083;-68
2021/09/22 04:04:50;;;;;;;26.52;16.48;;;7.50;99.90;;;;;;5056271;28;20118;-68
2021/09/22 04:07:16;;;;;;;29.40;17.40;;;7.50;99.90;;;;;;5055915;28;20063;-68
2021/09/22 04:09:41;;;;;;;27.60;16.85;;;7.40;99.90;;;;;;5056162;28;20029;-68
2021/09/22 04:12:07;;;;;;;26.10;16.23;;;7.40;99.90;;;;;;5056099;28;20454;-67
2021/09/22 04:14:33;;;;;;;26.20;16.20;;;7.40;99.90;;;;;;5056040;28;20352;-68
2021/09/22 04:16:58;;;;;;;26.70;15.82;;;7.30;99.90;;;;;;5055753;28;20029;-67
2021/09/22 04:19:24;;;;;;;25.35;16.48;;;7.40;99.90;;;;;;5055972;28;20466;-68
2021/09/22 04:21:50;;;;;;;28.65;17.58;;;7.40;99.90;;;;;;5055233;28;20419;-68
2021/09/22 04:24:16;;;;;;;24.27;15.65;;;7.30;99.90;;;;;;5055343;28;20025;-68
2021/09/22 04:26:42;;;;;;;26.08;16.55;;;7.30;99.90;;;;;;5055849;28;20074;-68
2021/09/22 04:29:08;;;;;;;28.65;16.23;;;7.30;99.90;;;;;;5055541;28;20374;-68
2021/09/22 04:31:33;;;;;;;27.90;16.35;;;7.30;99.90;;;;;;5054279;28;20087;-68
2021/09/22 04:33:59;;;;;;;27.45;16.70;;;7.30;99.90;;;;;;5055420;28;20029;-68
2021/09/22 04:36:26;;;;;;;25.80;15.40;;;7.30;99.90;;;;;;5054207;28;20029;-68
2021/09/22 04:38:51;;;;;;;23.92;15.35;;;7.30;99.90;;;;;;5054655;28;20028;-68
2021/09/22 04:41:17;;;;;;;26.00;14.65;;;7.30;99.90;;;;;;5055541;28;20025;-68
2021/09/22 04:43:44;;;;;;;31.90;17.10;;;7.20;99.90;;;;;;5055511;28;20108;-68
2021/09/22 04:46:10;;;;;;;28.88;16.50;;;7.30;99.90;;;;;;5054973;28;20029;-68
2021/09/22 04:48:35;;;;;;;28.58;16.95;;;7.30;99.90;;;;;;5055421;28;20431;-68
2021/09/22 04:51:01;;;;;;;26.67;16.15;;;7.40;99.90;;;;;;5053615;28;20059;-68
2021/09/22 04:53:27;;;;;;;22.55;14.68;;;7.40;99.90;;;;;;5055304;28;20029;-68
2021/09/22 04:55:52;;;;;;;26.80;15.32;;;7.40;99.90;;;;;;5054321;28;20045;-68
2021/09/22 04:58:19;;;;;;;25.67;15.85;;;7.30;99.90;;;;;;5054992;28;20406;-68
2021/09/22 05:00:44;;;;;;;23.27;14.82;;;7.40;99.90;;;;;;5055336;28;20422;-68
2021/09/22 05:03:10;;;;;;;23.17;15.13;;;7.30;99.90;;;;;;5055149;28;20100;-68
2021/09/22 05:05:35;;;;;;;26.40;16.00;;;7.30;99.90;;;;;;5054254;28;20450;-68
2021/09/22 05:08:01;;;;;;;23.45;15.18;;;7.30;99.90;;;;;;5053640;28;20044;-68
2021/09/22 05:10:27;;;;;;;26.85;15.23;;;7.30;99.90;;;;;;5054730;28;20056;-68
2021/09/22 05:12:52;;;;;;;31.30;16.05;;;7.30;99.90;;;;;;5054980;28;20028;-68
2021/09/22 05:15:18;;;;;;;27.80;16.58;;;7.30;99.90;;;;;;5054867;28;20063;-68
2021/09/22 05:17:44;;;;;;;29.85;16.90;;;7.30;99.90;;;;;;5054866;28;20035;-68
2021/09/22 05:20:10;;;;;;;27.92;17.75;;;7.30;99.90;;;;;;5054183;28;20148;-68
2021/09/22 05:22:36;;;;;;;29.73;17.75;;;7.40;99.90;;;;;;5053277;28;20048;-68
2021/09/22 05:25:03;;;;;;;31.45;17.35;;;7.40;99.90;;;;;;5054718;28;20103;-68
2021/09/22 05:27:28;;;;;;;29.40;16.30;;;7.40;99.90;;;;;;5053106;28;20025;-68
2021/09/22 05:29:54;;;;;;;28.27;17.20;;;7.40;99.90;;;;;;5054084;28;20120;-68
2021/09/22 05:32:19;;;;;;;26.58;15.57;;;7.50;99.90;;;;;;5053918;28;20025;-68
2021/09/22 05:34:45;;;;;;;28.30;16.42;;;7.50;99.90;;;;;;5052722;28;20078;-68
2021/09/22 05:37:11;;;;;;;28.02;15.57;;;7.60;99.90;;;;;;5052992;28;20021;-68
2021/09/22 05:39:36;;;;;;;29.95;17.63;;;7.60;99.90;;;;;;5053833;28;20100;-67
2021/09/22 05:42:02;;;;;;;32.17;18.75;;;7.70;99.90;;;;;;5053204;28;20021;-68
2021/09/22 05:44:28;;;;;;;30.27;17.60;;;7.80;99.90;;;;;;5054329;28;20021;-68
2021/09/22 05:46:53;;;;;;;32.00;18.70;;;7.80;99.90;;;;;;5052928;28;20036;-68
2021/09/22 05:49:19;;;;;;;33.90;19.05;;;8.00;99.90;;;;;;5053931;28;20032;-68
2021/09/22 05:51:45;;;;;;;33.60;19.00;;;8.00;99.90;;;;;;5047609;28;20030;-68
2021/09/22 05:54:12;;;;;;;34.47;18.92;;;8.10;99.90;;;;;;5048768;28;20095;-68
2021/09/22 05:56:37;;;;;;;33.22;18.33;;;8.20;99.90;;;;;;5035113;28;20521;-68
2021/09/22 05:59:03;;;;;;;33.40;18.73;;;8.30;99.90;;;;;;5049366;28;20025;-68
2021/09/22 06:01:28;;;;;;;31.13;19.05;;;8.40;99.90;;;;;;5043866;28;20024;-68
2021/09/22 06:03:54;;;;;;;34.20;18.20;;;8.40;99.90;;;;;;5051802;28;20425;-68
2021/09/22 06:06:20;;;;;;;30.35;18.13;;;8.60;99.90;;;;;;5053062;28;20025;-68
2021/09/22 06:08:46;;;;;;;33.67;17.60;;;8.60;99.90;;;;;;5053923;28;20021;-68
2021/09/22 06:11:11;;;;;;;32.92;18.75;;;8.70;99.90;;;;;;5051957;28;20078;-68
2021/09/22 06:13:37;;;;;;;28.02;16.80;;;8.80;99.90;;;;;;5049674;28;20025;-68
2021/09/22 06:16:02;;;;;;;32.60;17.48;;;8.90;99.90;;;;;;5053279;28;20028;-68
2021/09/22 06:18:28;;;;;;;32.25;18.98;;;9.10;99.90;;;;;;5052147;28;20044;-68
2021/09/22 06:20:53;;;;;;;29.23;17.55;;;9.20;99.90;;;;;;5051360;28;20514;-68
2021/09/22 06:23:19;;;;;;;33.85;17.20;;;9.30;99.90;;;;;;5053265;28;20017;-68
2021/09/22 06:25:45;;;;;;;36.10;16.88;;;9.50;99.90;;;;;;5053394;28;20021;-69
2021/09/22 06:28:10;;;;;;;35.42;18.63;;;9.70;99.90;;;;;;5052972;28;20047;-68
2021/09/22 06:30:36;;;;;;;41.20;17.85;;;9.80;99.90;;;;;;5053457;28;20124;-68
2021/09/22 06:33:02;;;;;;;64.97;20.00;;;10.00;99.90;;;;;;5051558;28;20032;-68
2021/09/22 06:35:27;;;;;;;47.03;17.95;;;10.10;99.90;;;;;;5053098;28;20029;-69
2021/09/22 06:37:53;;;;;;;39.80;17.40;;;10.30;99.90;;;;;;5053169;28;20029;-69
2021/09/22 06:40:21;;;;;;;41.97;16.95;;;10.70;99.90;;;;;;5053536;28;20458;-69
2021/09/22 06:42:47;;;;;;;50.30;17.13;;;11.10;99.90;;;;;;5052956;28;20017;-69
2021/09/22 06:45:15;;;;;;;39.08;16.35;;;11.40;99.90;;;;;;5052394;28;20021;-69
2021/09/22 06:47:40;;;;;;;37.00;14.95;;;11.80;99.90;;;;;;5053195;28;20145;-69
2021/09/22 06:50:07;;;;;;;31.00;15.73;;;12.20;99.90;;;;;;5053542;28;20462;-69
2021/09/22 06:52:32;;;;;;;44.13;15.23;;;12.50;99.90;;;;;;5051697;28;20028;-69
2021/09/22 06:54:59;;;;;;;35.08;14.90;;;12.70;99.90;;;;;;5052935;28;20021;-69
2021/09/22 06:57:25;;;;;;;37.67;14.98;;;12.80;99.90;;;;;;5053491;28;20029;-69
2021/09/22 06:59:50;;;;;;;34.38;15.10;;;13.00;99.90;;;;;;5053118;28;20032;-69
2021/09/22 07:02:16;;;;;;;40.22;16.10;;;13.10;99.90;;;;;;5052689;28;20129;-69
2021/09/22 07:04:42;;;;;;;38.45;14.77;;;13.40;99.90;;;;;;5052003;28;20032;-69
2021/09/22 07:07:07;;;;;;;33.22;15.30;;;13.80;99.90;;;;;;5053125;28;20151;-69
2021/09/22 07:09:33;;;;;;;32.15;16.05;;;14.00;99.90;;;;;;5053381;28;20013;-69
2021/09/22 07:11:58;;;;;;;37.20;14.60;;;13.90;99.90;;;;;;5034920;28;20036;-69
2021/09/22 07:14:24;;;;;;;33.55;16.05;;;14.30;99.90;;;;;;5053349;28;20111;-69
2021/09/22 07:16:50;;;;;;;37.85;16.17;;;14.30;99.90;;;;;;5053358;28;20074;-69
2021/09/22 07:19:15;;;;;;;30.92;15.82;;;14.10;99.90;;;;;;5053325;28;20033;-69
2021/09/22 07:21:41;;;;;;;34.35;16.67;;;14.00;99.90;;;;;;5052586;28;20049;-70
2021/09/22 07:24:07;;;;;;;28.63;15.95;;;14.20;99.90;;;;;;5051500;28;20532;-69
2021/09/22 07:26:32;;;;;;;26.77;15.25;;;14.50;99.90;;;;;;5052912;28;20081;-69
2021/09/22 07:28:59;;;;;;;30.63;17.20;;;14.30;99.90;;;;;;5055408;28;20021;-69
2021/09/22 07:31:25;;;;;;;32.63;16.23;;;14.30;99.90;;;;;;5056873;28;20029;-69
2021/09/22 07:33:51;;;;;;;26.52;16.10;;;14.30;99.90;;;;;;5056160;28;20068;-69
2021/09/22 07:36:20;;;;;;;30.48;16.95;;;14.50;99.90;;;;;;5056528;28;20025;-69
2021/09/22 07:38:46;;;;;;;26.60;17.38;;;14.70;99.90;;;;;;5035500;28;20036;-69
2021/09/22 07:41:12;;;;;;;28.35;17.98;;;14.80;99.90;;;;;;5036704;28;20025;-69
2021/09/22 07:43:37;;;;;;;29.58;18.10;;;14.90;99.90;;;;;;5036089;28;20028;-69
2021/09/22 07:46:03;;;;;;;35.10;17.45;;;14.90;99.90;;;;;;5047998;28;20037;-69
2021/09/22 07:48:29;;;;;;;29.85;18.17;;;14.90;99.90;;;;;;5055712;28;20025;-69
2021/09/22 07:50:55;;;;;;;31.23;19.67;;;14.70;99.90;;;;;;5054934;28;20040;-69
2021/09/22 07:53:20;;;;;;;31.35;19.73;;;15.10;99.90;;;;;;5054889;28;20029;-69
2021/09/22 07:55:46;;;;;;;40.75;19.60;;;15.40;99.90;;;;;;5055300;28;20044;-69
2021/09/22 07:58:12;;;;;;;32.17;18.35;;;15.90;99.90;;;;;;5055366;28;20374;-69
2021/09/22 08:00:38;;;;;;;30.48;19.10;;;16.10;99.90;;;;;;5055111;28;20017;-69
2021/09/22 08:03:04;;;;;;;32.20;19.70;;;16.40;99.90;;;;;;5055307;28;20116;-69
2021/09/22 08:05:31;;;;;;;37.72;19.63;;;16.50;99.90;;;;;;5055024;28;20025;-69
2021/09/22 08:07:56;;;;;;;38.70;21.77;;;16.80;99.90;;;;;;5053208;28;20021;-69
2021/09/22 08:10:22;;;;;;;35.17;20.02;;;16.80;99.90;;;;;;5054430;28;20499;-69
2021/09/22 08:12:50;;;;;;;32.45;20.13;;;16.60;99.90;;;;;;5054360;28;20039;-69
2021/09/22 08:15:16;;;;;;;36.42;20.80;;;16.60;99.90;;;;;;5054310;28;20017;-69
2021/09/22 08:17:42;;;;;;;35.55;21.10;;;16.70;99.90;;;;;;5054190;28;20469;-69
2021/09/22 08:20:08;;;;;;;35.15;21.77;;;16.80;99.90;;;;;;5053950;28;20055;-69
2021/09/22 08:22:34;;;;;;;34.45;21.60;;;16.80;99.90;;;;;;5052839;28;20021;-69
2021/09/22 08:25:00;;;;;;;35.25;22.67;;;16.80;99.90;;;;;;5054154;28;20021;-69
2021/09/22 08:27:26;;;;;;;42.75;26.00;;;16.50;99.90;;;;;;5053036;28;20026;-69
2021/09/22 08:29:52;;;;;;;39.55;25.63;;;16.40;99.90;;;;;;5053853;28;20104;-69
2021/09/22 08:32:18;;;;;;;40.90;24.63;;;16.20;99.90;;;;;;5052920;28;20025;-69
2021/09/22 08:34:43;;;;;;;39.53;24.70;;;16.50;99.90;;;;;;5053374;28;20040;-69
2021/09/22 08:37:09;;;;;;;42.35;26.23;;;17.10;99.90;;;;;;5053323;28;20029;-69
2021/09/22 08:39:35;;;;;;;42.28;26.48;;;17.60;99.90;;;;;;5053042;28;20039;-69
2021/09/22 08:42:01;;;;;;;40.40;25.85;;;18.00;99.90;;;;;;5053677;28;20025;-69
2021/09/22 08:44:27;;;;;;;40.53;25.67;;;18.00;99.90;;;;;;5036083;28;20032;-69
2021/09/22 08:46:53;;;;;;;37.25;25.20;;;17.70;99.90;;;;;;5048472;28;20029;-69
2021/09/22 08:49:19;;;;;;;37.92;26.08;;;18.50;99.90;;;;;;5053417;28;20021;-69
2021/09/22 08:51:45;;;;;;;38.47;27.00;;;18.70;99.90;;;;;;5054494;28;20120;-68
2021/09/22 08:54:12;;;;;;;42.30;27.17;;;18.40;99.90;;;;;;5054196;28;20048;-69
2021/09/22 08:56:39;;;;;;;39.03;26.35;;;18.40;99.90;;;;;;5053242;28;20104;-69
2021/09/22 08:59:07;;;;;;;40.30;28.17;;;18.50;99.90;;;;;;5051129;28;20037;-70
2021/09/22 09:01:32;;;;;;;39.55;26.92;;;19.00;99.90;;;;;;5050801;28;20494;-70
2021/09/22 09:04:14;;;;;;;39.80;27.35;;;19.20;99.90;;;;;;5053031;28;20051;-70
2021/09/22 09:06:39;;;;;;;36.17;26.45;;;18.80;99.90;;;;;;5053077;28;20031;-70
2021/09/22 09:09:06;;;;;;;37.55;25.73;;;19.20;99.90;;;;;;5053199;28;20092;-70
2021/09/22 09:11:34;;;;;;;39.15;27.13;;;19.10;99.90;;;;;;5053188;28;20021;-70
2021/09/22 09:14:02;;;;;;;35.97;26.42;;;19.40;99.90;;;;;;5053126;28;20131;-70
2021/09/22 09:16:38;;;;;;;37.67;27.45;;;18.80;99.90;;;;;;5053206;28;20028;-70
2021/09/22 09:19:22;;;;;;;36.03;25.52;;;19.20;99.90;;;;;;5053145;28;20026;-70
2021/09/22 09:22:09;;;;;;;37.17;25.13;;;19.80;99.90;;;;;;5053498;28;20056;-69
2021/09/22 09:24:40;;;;;;;35.95;24.88;;;19.70;99.90;;;;;;5053737;28;20032;-69
2021/09/22 09:27:10;;;;;;;34.88;25.90;;;20.20;99.90;;;;;;5052768;28;20021;-69
2021/09/22 09:29:37;;;;;;;38.40;25.73;;;19.60;99.90;;;;;;5052269;28;20017;-69
2021/09/22 09:32:25;;;;;;;36.72;25.85;;;19.80;99.90;;;;;;5051581;28;20059;-69
2021/09/22 09:37:40;;;;;;;41.13;25.88;;;20.70;99.90;;;;;;5110051;27;20537;-68
2021/09/22 09:40:28;;;;;;;32.78;26.10;;;21.30;99.90;;;;;;5109461;28;20103;-69
2021/09/22 09:43:02;;;;;;;37.75;25.70;;;21.00;99.90;;;;;;5109987;28;20020;-68
2021/09/22 09:45:36;;;;;;;36.95;25.60;;;20.00;99.90;;;;;;5109869;28;20103;-69
2021/09/22 09:48:13;;;;;;;38.05;26.67;;;19.90;99.90;;;;;;5109598;28;20139;-70
2021/09/22 09:50:52;;;;;;;35.53;24.27;;;19.60;99.90;;;;;;5108511;28;20103;-69
2021/09/22 09:53:26;;;;;;;29.70;22.75;;;20.30;99.90;;;;;;5108644;28;20039;-70
2021/09/22 09:55:53;;;;;;;31.98;23.77;;;21.00;99.90;;;;;;5109606;28;20517;-68
2021/09/22 09:58:20;;;;;;;29.75;23.20;;;20.70;99.90;;;;;;5108296;28;20058;-70
2021/09/22 10:00:50;;;;;;;32.03;22.95;;;21.50;99.90;;;;;;5109925;28;20048;-69
2021/09/22 10:03:19;;;;;;;31.15;24.17;;;21.50;99.90;;;;;;5122862;28;20080;-68
2021/09/22 10:05:47;;;;;;;33.15;25.00;;;21.30;99.90;;;;;;5118067;27;20022;-70
2021/09/22 10:08:15;;;;;;;32.42;25.30;;;20.80;99.90;;;;;;5106362;28;20066;-70
2021/09/22 10:10:43;;;;;;;36.28;27.85;;;20.70;99.90;;;;;;5110207;28;20044;-69
2021/09/22 10:13:09;;;;;;;37.78;26.65;;;20.70;99.90;;;;;;5110105;28;20019;-69
2021/09/22 10:15:38;;;;;;;38.60;25.35;;;20.80;99.90;;;;;;5109308;28;20058;-69
2021/09/22 10:18:04;;;;;;;38.33;27.92;;;20.80;99.90;;;;;;5109569;28;20035;-69
2021/09/22 10:20:30;;;;;;;45.42;30.60;;;20.50;99.90;;;;;;5108082;28;20480;-69
2021/09/22 10:22:55;;;;;;;35.78;27.25;;;20.40;99.90;;;;;;5109300;28;20081;-69
2021/09/22 10:25:23;;;;;;;38.97;29.77;;;20.60;99.90;;;;;;5109293;28;20069;-69
2021/09/22 10:27:49;;;;;;;38.55;28.20;;;20.80;99.90;;;;;;5108972;28;20465;-70
2021/09/22 10:30:15;;;;;;;34.30;25.02;;;21.00;99.90;;;;;;5108492;28;20032;-69
2021/09/22 10:32:45;;;;;;;34.38;23.95;;;20.70;99.90;;;;;;5110055;28;20110;-69
2021/09/22 10:35:30;;;;;;;28.95;22.92;;;20.60;99.90;;;;;;5108396;28;20023;-68
2021/09/22 10:37:59;;;;;;;37.05;26.17;;;20.60;99.90;;;;;;5108506;28;20092;-69
2021/09/22 10:40:49;;;;;;;34.28;25.33;;;20.50;99.90;;;;;;5108756;28;20024;-69
2021/09/22 10:43:19;;;;;;;35.78;25.10;;;19.80;99.90;;;;;;5108835;28;20019;-69
2021/09/22 10:45:58;;;;;;;30.98;24.92;;;20.00;99.90;;;;;;5109520;28;20020;-69
2021/09/22 10:48:24;;;;;;;33.80;26.35;;;21.00;99.90;;;;;;5098718;28;20024;-68
2021/09/22 10:50:52;;;;;;;35.13;26.05;;;21.10;99.90;;;;;;5095211;28;20028;-69
2021/09/22 10:56:13;;;;;;;34.20;26.90;;;20.40;99.90;;;;;;5089978;28;20948;-68
2021/09/22 10:58:57;;;;;;;34.05;25.85;;;20.70;99.90;;;;;;5089781;28;20024;-69
2021/09/22 11:04:15;;;;;;;35.03;25.83;;;20.90;99.90;;;;;;5110103;27;20486;-68
2021/09/22 11:14:41;;;;;;;29.38;23.05;;;20.90;99.90;;;;;;5089670;28;20130;-68
2021/09/22 11:17:13;;;;;;;28.65;21.05;;;20.60;99.90;;;;;;5090279;28;20078;-69
2021/09/22 11:19:41;;;;;;;28.92;21.30;;;20.80;99.90;;;;;;5089631;28;20354;-69
2021/09/22 11:22:10;;;;;;;30.02;20.60;;;20.60;99.90;;;;;;5088355;28;20386;-68
2021/09/22 11:24:37;;;;;;;29.83;21.08;;;20.80;99.90;;;;;;5089594;28;20074;-69
2021/09/22 11:27:08;;;;;;;28.38;22.00;;;20.80;99.90;;;;;;5088249;28;20025;-69
2021/09/22 11:29:52;;;;;;;30.27;21.45;;;20.70;99.90;;;;;;5090198;28;20052;-69
2021/09/22 11:32:40;;;;;;;31.80;21.67;;;20.70;99.90;;;;;;5089336;28;20027;-69
2021/09/22 11:35:10;;;;;;;34.85;22.98;;;20.50;99.90;;;;;;5087985;28;20438;-69
2021/09/22 11:37:40;;;;;;;30.55;22.50;;;20.60;99.90;;;;;;5089583;28;20516;-70
2021/09/22 11:40:30;;;;;;;30.45;21.48;;;20.50;99.90;;;;;;5089166;28;20017;-69
2021/09/22 11:45:37;;;;;;;24.05;18.45;;;20.40;99.90;;;;;;5110144;27;20387;-68
2021/09/22 11:48:03;;;;;;;28.60;19.35;;;20.60;99.90;;;;;;5110535;27;20036;-67
2021/09/22 11:50:46;;;;;;;24.45;17.88;;;20.60;99.90;;;;;;5110876;28;20039;-68
2021/09/22 11:53:14;;;;;;;25.58;16.50;;;21.00;99.90;;;;;;5109213;28;20025;-68
2021/09/22 11:55:42;;;;;;;27.48;17.52;;;20.90;99.90;;;;;;5109249;28;20081;-67
2021/09/22 11:58:10;;;;;;;20.55;13.00;;;20.70;99.90;;;;;;5110666;28;20020;-67
2021/09/22 12:00:36;;;;;;;25.75;15.30;;;20.90;99.90;;;;;;5110629;28;20077;-67
2021/09/22 12:03:06;;;;;;;19.75;13.60;;;20.80;99.90;;;;;;5110708;28;20031;-68
2021/09/22 12:05:31;;;;;;;20.90;13.48;;;20.90;99.90;;;;;;5110686;28;20107;-67
2021/09/22 12:07:57;;;;;;;19.35;13.38;;;21.10;99.90;;;;;;5110463;28;20575;-68
2021/09/22 12:10:24;;;;;;;23.05;15.88;;;21.20;99.90;;;;;;5110276;28;20026;-67
2021/09/22 12:12:50;;;;;;;20.02;14.68;;;21.10;99.90;;;;;;5110524;28;20051;-67
2021/09/22 12:15:17;;;;;;;18.30;13.82;;;20.90;99.90;;;;;;5110393;28;20055;-67
2021/09/22 12:17:43;;;;;;;22.58;14.00;;;20.90;99.90;;;;;;5110402;28;20107;-67
2021/09/22 12:20:12;;;;;;;21.60;15.30;;;20.90;99.90;;;;;;5110339;28;20084;-67
2021/09/22 12:22:40;;;;;;;23.42;15.70;;;20.80;99.90;;;;;;5109066;28;20024;-67
2021/09/22 12:25:07;;;;;;;24.17;15.10;;;20.90;99.90;;;;;;5110242;28;20030;-67
2021/09/22 12:27:33;;;;;;;17.67;11.85;;;20.90;99.90;;;;;;5110032;28;20012;-67
2021/09/22 12:30:17;;;;;;;18.67;12.30;;;21.10;99.90;;;;;;5108662;28;20533;-67
2021/09/22 12:33:00;;;;;;;15.30;11.48;;;21.20;99.90;;;;;;5109913;28;20036;-67
2021/09/22 12:35:28;;;;;;;;;;;21.20;99.90;;;;;;5100539;28;20039;-67
2021/09/22 12:37:57;;;;;;;15.80;10.70;;;21.30;99.90;;;;;;5107529;28;19908;-67
2021/09/22 12:40:29;;;;;;;15.63;9.82;;;21.50;99.90;;;;;;5094595;28;20047;-67
2021/09/22 12:42:57;;;;;;;17.40;10.98;;;21.40;99.90;;;;;;5109599;28;20034;-67
2021/09/22 12:45:26;;;;;;;16.17;11.93;;;21.50;99.90;;;;;;5099586;28;20474;-67
2021/09/22 12:47:57;;;;;;;17.70;11.15;;;21.60;99.90;;;;;;5089326;28;20048;-67
2021/09/22 12:50:34;;;;;;;17.38;11.20;;;21.60;99.90;;;;;;5098397;28;20032;-68
2021/09/22 12:53:11;;;;;;;18.38;12.05;;;21.40;99.90;;;;;;5103534;28;20465;-67